Time;durP1;ratioP1;P1;durP2;ratioP2;P2;SDS_P1;SDS_P2;PMS_P1;PMS_P2;Temp;Humidity;BMP_temperature;BMP_pressure;BME280_temperature;BME280_humidity;BME280_pressure;Samples;Min_cycle;Max_cycle;Signal;HPM_P1;HPM_P2
2023/09/20 00:00:24;;;;;;;15.77;4.95;;;16.50;99.90;;;;;;5033822;28;20087;-74
2023/09/20 00:02:50;;;;;;;7.60;4.65;;;16.50;99.90;;;;;;5052230;28;20052;-73
2023/09/20 00:05:17;;;;;;;11.25;5.07;;;16.50;99.90;;;;;;5052039;28;20037;-74
2023/09/20 00:07:43;;;;;;;10.88;4.03;;;16.60;99.90;;;;;;5052048;28;20499;-74
2023/09/20 00:10:14;;;;;;;9.25;4.88;;;16.60;99.90;;;;;;5033619;28;20041;-73
2023/09/20 00:12:44;;;;;;;9.77;4.63;;;16.60;99.90;;;;;;5034342;28;20041;-73
2023/09/20 00:15:10;;;;;;;12.07;5.03;;;16.50;99.90;;;;;;5034139;28;20407;-73
2023/09/20 00:17:36;;;;;;;8.90;5.47;;;16.50;99.90;;;;;;5051864;28;20036;-74
2023/09/20 00:20:13;;;;;;;9.05;4.95;;;16.50;99.90;;;;;;5051496;28;20115;-73
2023/09/20 00:22:43;;;;;;;11.63;5.18;;;16.50;99.90;;;;;;5033941;28;20107;-73
2023/09/20 00:25:10;;;;;;;8.98;5.40;;;16.40;99.90;;;;;;5051765;28;20033;-74
2023/09/20 00:27:38;;;;;;;12.73;5.07;;;16.50;99.90;;;;;;5051755;28;20082;-74
2023/09/20 00:30:06;;;;;;;13.10;5.82;;;16.50;99.90;;;;;;5051402;28;20108;-74
2023/09/20 00:32:32;;;;;;;9.75;4.50;;;16.50;99.90;;;;;;5051527;28;20052;-73
2023/09/20 00:34:58;;;;;;;11.32;5.10;;;16.50;99.90;;;;;;5051343;28;20493;-74
2023/09/20 00:37:23;;;;;;;12.07;4.88;;;16.40;99.90;;;;;;5051766;28;20120;-74
2023/09/20 00:39:49;;;;;;;8.45;5.30;;;16.50;99.90;;;;;;5017149;28;20110;-74
2023/09/20 00:42:15;;;;;;;11.23;5.43;;;16.50;99.90;;;;;;5033933;28;20033;-73
2023/09/20 00:44:40;;;;;;;10.70;4.80;;;16.50;99.90;;;;;;5017468;28;20037;-73
2023/09/20 00:47:06;;;;;;;10.55;4.82;;;16.50;99.90;;;;;;5033907;28;20036;-74
2023/09/20 00:49:34;;;;;;;11.00;4.78;;;16.60;99.90;;;;;;5033232;28;20496;-74
2023/09/20 00:52:01;;;;;;;11.07;4.45;;;16.50;99.90;;;;;;5051611;28;20045;-74
2023/09/20 00:54:27;;;;;;;14.02;5.32;;;16.60;99.90;;;;;;5051658;28;20041;-73
2023/09/20 00:56:52;;;;;;;11.25;4.82;;;16.60;99.90;;;;;;5051264;28;20446;-73
2023/09/20 00:59:18;;;;;;;10.10;5.20;;;16.60;99.90;;;;;;5051159;28;20143;-74
2023/09/20 01:01:44;;;;;;;12.95;4.88;;;16.60;99.90;;;;;;5017358;28;20481;-73
2023/09/20 01:04:11;;;;;;;10.85;5.35;;;16.60;99.90;;;;;;5033503;28;20404;-73
2023/09/20 01:06:37;;;;;;;12.40;5.40;;;16.70;99.90;;;;;;5051317;28;20051;-73
2023/09/20 01:09:03;;;;;;;8.90;4.28;;;16.70;99.90;;;;;;5051097;28;20098;-73
2023/09/20 01:11:30;;;;;;;11.32;5.55;;;16.60;99.90;;;;;;5051239;28;20037;-73
2023/09/20 01:13:58;;;;;;;12.00;4.50;;;16.60;99.90;;;;;;5051271;28;20048;-73
2023/09/20 01:16:24;;;;;;;20.05;5.82;;;16.70;99.90;;;;;;5050583;28;20036;-73
2023/09/20 01:18:50;;;;;;;12.05;4.90;;;16.60;99.90;;;;;;5047183;28;20045;-73
2023/09/20 01:21:16;;;;;;;11.30;4.32;;;16.60;99.90;;;;;;5033422;28;20079;-73
2023/09/20 01:23:42;;;;;;;11.25;4.68;;;16.70;99.90;;;;;;5033578;28;20072;-73
2023/09/20 01:26:11;;;;;;;11.43;4.70;;;16.60;99.90;;;;;;5033145;28;20057;-74
2023/09/20 01:28:37;;;;;;;11.68;4.60;;;16.60;99.90;;;;;;5032949;28;20044;-74
2023/09/20 01:31:05;;;;;;;7.07;4.10;;;16.60;99.90;;;;;;5033179;28;20496;-73
2023/09/20 01:33:31;;;;;;;10.48;4.00;;;16.60;99.90;;;;;;5033405;28;20053;-73
2023/09/20 01:35:58;;;;;;;10.50;5.28;;;16.60;99.90;;;;;;5058962;22;20044;-69
2023/09/20 01:38:25;;;;;;;11.77;4.32;;;16.60;99.90;;;;;;5050662;28;20520;-69
2023/09/20 01:40:55;;;;;;;12.85;4.47;;;16.60;99.90;;;;;;5049027;28;20404;-69
2023/09/20 01:43:22;;;;;;;9.65;4.22;;;16.70;99.90;;;;;;5050730;28;20041;-69
2023/09/20 01:45:47;;;;;;;12.52;5.18;;;16.70;99.90;;;;;;5054476;28;20040;-70
2023/09/20 01:48:15;;;;;;;12.65;4.28;;;16.60;99.90;;;;;;5054731;28;20037;-69
2023/09/20 01:50:43;;;;;;;9.32;3.85;;;16.70;99.90;;;;;;5053349;28;20060;-69
2023/09/20 01:53:10;;;;;;;8.82;4.20;;;16.70;99.90;;;;;;5053517;28;20073;-69
2023/09/20 01:55:37;;;;;;;8.35;3.75;;;16.70;99.90;;;;;;5053163;28;20045;-69
2023/09/20 01:58:05;;;;;;;15.55;4.38;;;16.70;99.90;;;;;;5053402;28;20045;-70
2023/09/20 02:00:32;;;;;;;13.02;3.38;;;16.70;99.90;;;;;;5054062;28;20032;-70
2023/09/20 02:03:16;;;;;;;10.90;4.30;;;16.70;99.90;;;;;;5054449;28;20048;-69
2023/09/20 02:05:44;;;;;;;11.05;4.10;;;16.80;99.90;;;;;;5036300;28;20128;-69
2023/09/20 02:08:09;;;;;;;12.38;4.57;;;16.80;99.90;;;;;;5052884;28;20061;-70
2023/09/20 02:10:39;;;;;;;8.40;3.72;;;16.80;99.90;;;;;;5053790;28;20115;-69
2023/09/20 02:13:06;;;;;;;11.52;3.92;;;16.80;99.90;;;;;;5053112;28;20047;-70
2023/09/20 02:15:34;;;;;;;7.00;3.67;;;16.80;99.90;;;;;;5054133;28;20053;-70
2023/09/20 02:18:05;;;;;;;9.93;3.67;;;16.80;99.90;;;;;;5053995;28;20044;-69
2023/09/20 02:20:36;;;;;;;13.10;5.00;;;16.80;99.90;;;;;;5053889;28;20033;-70
2023/09/20 02:23:03;;;;;;;9.75;3.67;;;16.80;99.90;;;;;;5054015;28;20041;-70
2023/09/20 02:25:29;;;;;;;7.60;3.70;;;16.80;99.90;;;;;;5052731;28;20124;-70
2023/09/20 02:27:59;;;;;;;7.35;3.20;;;16.80;99.90;;;;;;5054118;28;20115;-69
2023/09/20 02:30:28;;;;;;;8.50;3.25;;;16.90;99.90;;;;;;5053796;28;20412;-70
2023/09/20 02:32:57;;;;;;;7.72;3.90;;;16.90;99.90;;;;;;5053886;28;20107;-69
2023/09/20 02:35:24;;;;;;;9.25;3.58;;;16.90;99.90;;;;;;5053918;28;20416;-69
2023/09/20 02:37:51;;;;;;;13.07;3.65;;;16.90;99.90;;;;;;5053812;28;20095;-69
2023/09/20 02:40:23;;;;;;;9.43;4.25;;;16.90;99.90;;;;;;5053991;28;20037;-69
2023/09/20 02:42:53;;;;;;;9.70;3.42;;;16.90;99.90;;;;;;5053852;28;20041;-69
2023/09/20 02:45:20;;;;;;;7.20;3.28;;;16.90;99.90;;;;;;5052469;28;20140;-69
2023/09/20 02:47:46;;;;;;;10.02;3.83;;;16.90;99.90;;;;;;5052242;28;20108;-69
2023/09/20 02:50:16;;;;;;;12.02;3.35;;;16.90;99.90;;;;;;5035586;28;20042;-69
2023/09/20 02:52:45;;;;;;;10.25;3.13;;;16.90;99.90;;;;;;5053640;28;20045;-69
2023/09/20 02:55:13;;;;;;;11.38;3.72;;;16.90;99.90;;;;;;5053455;28;20041;-70
2023/09/20 02:57:39;;;;;;;11.65;3.60;;;16.90;99.90;;;;;;5052031;28;20602;-69
2023/09/20 03:00:15;;;;;;;6.35;3.10;;;17.00;99.90;;;;;;5052937;28;20512;-70
2023/09/20 03:02:45;;;;;;;6.63;3.20;;;17.00;99.90;;;;;;5053221;28;20048;-70
2023/09/20 03:05:16;;;;;;;13.95;3.78;;;17.00;99.90;;;;;;5052197;28;20040;-70
2023/09/20 03:07:46;;;;;;;9.38;3.22;;;17.00;99.90;;;;;;5053326;28;20037;-69
2023/09/20 03:10:13;;;;;;;8.55;2.95;;;17.00;99.90;;;;;;5052882;28;20421;-71
2023/09/20 03:12:47;;;;;;;8.52;3.45;;;17.00;99.90;;;;;;5053070;28;20177;-70
2023/09/20 03:15:18;;;;;;;14.23;3.78;;;17.00;99.90;;;;;;5052936;28;20083;-70
2023/09/20 03:17:49;;;;;;;9.20;3.25;;;17.00;99.90;;;;;;5053058;28;20047;-70
2023/09/20 03:20:24;;;;;;;10.27;3.78;;;17.10;99.90;;;;;;5052639;28;20032;-70
2023/09/20 03:23:01;;;;;;;6.95;2.90;;;17.10;99.90;;;;;;5052982;28;20045;-70
2023/09/20 03:25:28;;;;;;;10.40;3.42;;;17.10;99.90;;;;;;5052904;28;20036;-70
2023/09/20 03:27:55;;;;;;;8.38;3.13;;;17.10;99.90;;;;;;5051391;28;20041;-70
2023/09/20 03:30:21;;;;;;;12.75;3.75;;;17.10;99.90;;;;;;5052639;28;20090;-70
2023/09/20 03:32:48;;;;;;;7.93;3.47;;;17.10;99.90;;;;;;5052795;28;20488;-70
2023/09/20 03:35:14;;;;;;;11.30;4.50;;;17.10;99.90;;;;;;5052337;28;20492;-70
2023/09/20 03:37:41;;;;;;;9.40;3.40;;;17.10;99.90;;;;;;5052847;28;20128;-71
2023/09/20 03:40:10;;;;;;;7.88;3.22;;;17.10;99.90;;;;;;5052167;28;20048;-69
2023/09/20 03:42:39;;;;;;;9.23;3.60;;;17.10;99.90;;;;;;5052364;28;20511;-70
2023/09/20 03:45:06;;;;;;;9.75;3.30;;;17.00;99.90;;;;;;5052411;28;20500;-69
2023/09/20 03:47:32;;;;;;;12.20;4.32;;;17.10;99.90;;;;;;5052575;28;20044;-69
2023/09/20 03:49:58;;;;;;;5.25;3.13;;;17.00;99.90;;;;;;5051958;28;20496;-70
2023/09/20 03:52:23;;;;;;;13.60;3.25;;;17.10;99.90;;;;;;5052264;28;20048;-70
2023/09/20 03:54:51;;;;;;;6.78;3.22;;;17.10;99.90;;;;;;5052402;28;20045;-70
2023/09/20 03:57:18;;;;;;;15.18;4.07;;;17.00;99.90;;;;;;5052654;28;20120;-70
2023/09/20 03:59:43;;;;;;;10.70;3.22;;;17.00;99.90;;;;;;5050830;28;20048;-71
2023/09/20 04:02:13;;;;;;;7.35;3.53;;;17.00;99.90;;;;;;5052157;28;20032;-71
2023/09/20 04:04:40;;;;;;;11.57;3.75;;;17.10;99.90;;;;;;5052081;28;20459;-71
2023/09/20 04:07:06;;;;;;;8.00;2.90;;;17.00;99.90;;;;;;5051686;28;20048;-71
2023/09/20 04:09:32;;;;;;;9.48;3.42;;;17.00;99.90;;;;;;5051727;28;20033;-71
2023/09/20 04:11:59;;;;;;;5.93;3.45;;;17.00;99.90;;;;;;5051816;28;20041;-71
2023/09/20 04:14:25;;;;;;;12.95;3.75;;;17.00;99.90;;;;;;5052050;28;20045;-70
2023/09/20 04:16:52;;;;;;;9.65;3.38;;;17.00;99.90;;;;;;5051811;28;20037;-71
2023/09/20 04:19:20;;;;;;;10.15;3.50;;;17.00;99.90;;;;;;5051564;28;20041;-71
2023/09/20 04:21:46;;;;;;;10.43;3.72;;;17.00;99.90;;;;;;5050605;28;20079;-71
2023/09/20 04:24:11;;;;;;;10.05;4.05;;;17.00;99.90;;;;;;5050688;28;20080;-71
2023/09/20 04:26:37;;;;;;;9.95;3.50;;;17.00;99.90;;;;;;5050938;28;20095;-71
2023/09/20 04:29:03;;;;;;;8.27;3.50;;;17.00;99.90;;;;;;5051461;28;20044;-71
2023/09/20 04:31:30;;;;;;;10.13;3.10;;;16.90;99.90;;;;;;5050642;28;20037;-71
2023/09/20 04:33:59;;;;;;;11.20;4.05;;;16.90;99.90;;;;;;5050464;28;20089;-71
2023/09/20 04:36:27;;;;;;;7.10;3.67;;;16.90;99.90;;;;;;5051338;28;20037;-71
2023/09/20 04:38:53;;;;;;;11.88;3.95;;;16.80;99.90;;;;;;5050253;28;20053;-71
2023/09/20 04:41:18;;;;;;;10.57;3.08;;;16.80;99.90;;;;;;5050281;28;20570;-71
2023/09/20 04:43:44;;;;;;;9.00;3.15;;;16.80;99.90;;;;;;5051772;28;20112;-71
2023/09/20 04:46:10;;;;;;;8.02;3.13;;;16.80;99.90;;;;;;5051545;28;20424;-71
2023/09/20 04:48:38;;;;;;;12.23;3.40;;;16.70;99.90;;;;;;5050016;28;20049;-71
2023/09/20 04:51:04;;;;;;;7.07;4.03;;;16.70;99.90;;;;;;5051370;28;20040;-71
2023/09/20 04:53:30;;;;;;;9.10;2.80;;;16.70;99.90;;;;;;5033578;28;20044;-71
2023/09/20 04:55:56;;;;;;;9.73;3.00;;;16.60;99.90;;;;;;5050069;28;20094;-71
2023/09/20 04:58:22;;;;;;;7.90;3.15;;;16.60;99.90;;;;;;5049980;28;20083;-71
2023/09/20 05:00:48;;;;;;;11.98;3.53;;;16.50;99.90;;;;;;5050232;28;20427;-71
2023/09/20 05:03:15;;;;;;;8.32;3.40;;;16.50;99.90;;;;;;5050246;28;20115;-71
2023/09/20 05:05:43;;;;;;;8.07;3.15;;;16.50;99.90;;;;;;5049955;28;20048;-71
2023/09/20 05:08:09;;;;;;;8.13;3.38;;;16.40;99.90;;;;;;5051532;28;20060;-71
2023/09/20 05:10:34;;;;;;;10.27;3.40;;;16.40;99.90;;;;;;5049815;28;20501;-71
2023/09/20 05:13:01;;;;;;;8.82;3.28;;;16.40;99.90;;;;;;5051303;28;20052;-71
2023/09/20 05:15:26;;;;;;;11.13;4.00;;;16.40;99.90;;;;;;5050091;28;20084;-71
2023/09/20 05:17:52;;;;;;;8.60;3.03;;;16.30;99.90;;;;;;5050338;28;20554;-71
2023/09/20 05:20:18;;;;;;;9.88;3.88;;;16.40;99.90;;;;;;5054726;28;20090;-71
2023/09/20 05:22:44;;;;;;;10.38;3.17;;;16.40;99.90;;;;;;5055256;28;20109;-71
2023/09/20 05:25:09;;;;;;;9.10;3.75;;;16.40;99.90;;;;;;5055088;28;20115;-71
2023/09/20 05:27:36;;;;;;;8.80;4.07;;;16.30;99.90;;;;;;5053961;28;20039;-71
2023/09/20 05:30:02;;;;;;;7.70;3.03;;;16.40;99.90;;;;;;5054712;28;20048;-71
2023/09/20 05:32:28;;;;;;;10.27;3.30;;;16.40;99.90;;;;;;5053540;28;20045;-71
2023/09/20 05:34:53;;;;;;;13.45;3.10;;;16.40;99.90;;;;;;5054810;28;20040;-71
2023/09/20 05:37:19;;;;;;;5.85;2.67;;;16.40;99.90;;;;;;5053533;28;20575;-71
2023/09/20 05:39:47;;;;;;;8.77;3.17;;;16.40;99.90;;;;;;5054624;28;20044;-71
2023/09/20 05:42:17;;;;;;;8.15;3.85;;;16.50;99.90;;;;;;5053668;28;20048;-71
2023/09/20 05:44:43;;;;;;;9.05;3.17;;;16.50;99.90;;;;;;5054652;28;20037;-71
2023/09/20 05:47:09;;;;;;;8.60;4.25;;;16.50;99.90;;;;;;5053182;28;20052;-71
2023/09/20 05:49:35;;;;;;;8.77;3.55;;;16.60;99.90;;;;;;5053197;28;20404;-71
2023/09/20 05:52:04;;;;;;;10.70;3.13;;;16.60;99.90;;;;;;5053307;28;20041;-71
2023/09/20 05:54:31;;;;;;;6.82;3.25;;;16.60;99.90;;;;;;5052824;28;20044;-70
2023/09/20 05:56:56;;;;;;;7.18;3.20;;;16.60;99.90;;;;;;5052446;28;20041;-70
2023/09/20 05:59:22;;;;;;;14.40;4.03;;;16.60;99.90;;;;;;5052589;28;20044;-71
2023/09/20 06:01:48;;;;;;;7.97;2.80;;;16.60;99.90;;;;;;5053775;28;20519;-70
2023/09/20 06:04:13;;;;;;;9.05;3.08;;;16.60;99.90;;;;;;5054125;28;20029;-70
2023/09/20 06:06:39;;;;;;;9.68;3.60;;;16.60;99.90;;;;;;5054200;28;20079;-70
2023/09/20 06:09:05;;;;;;;5.68;3.08;;;16.70;99.90;;;;;;5054119;28;20076;-70
2023/09/20 06:11:31;;;;;;;6.85;3.00;;;16.50;99.90;;;;;;5053618;28;20104;-71
2023/09/20 06:13:56;;;;;;;8.75;3.15;;;16.60;99.90;;;;;;5052510;28;20139;-69
2023/09/20 06:16:22;;;;;;;5.97;3.00;;;16.50;99.90;;;;;;5053670;28;20036;-70
2023/09/20 06:18:49;;;;;;;12.30;3.15;;;16.50;99.90;;;;;;5053801;28;20037;-70
2023/09/20 06:21:17;;;;;;;11.90;3.38;;;16.50;99.90;;;;;;5054167;28;20075;-71
2023/09/20 06:23:43;;;;;;;10.55;3.65;;;16.60;99.90;;;;;;5054121;28;20412;-71
2023/09/20 06:26:12;;;;;;;10.48;3.03;;;16.50;99.90;;;;;;5052695;28;20515;-71
2023/09/20 06:28:42;;;;;;;9.85;3.03;;;16.50;99.90;;;;;;5053345;28;20111;-70
2023/09/20 06:31:13;;;;;;;8.10;2.78;;;16.50;99.90;;;;;;5053695;28;20044;-70
2023/09/20 06:33:46;;;;;;;11.85;3.00;;;16.40;99.90;;;;;;5052643;28;20049;-70
2023/09/20 06:36:22;;;;;;;6.65;3.30;;;16.40;99.90;;;;;;5053639;28;20045;-71
2023/09/20 06:38:48;;;;;;;6.65;2.60;;;16.40;99.90;;;;;;5052841;28;20044;-71
2023/09/20 06:41:13;;;;;;;4.95;2.58;;;16.40;99.90;;;;;;5053036;28;20488;-70
2023/09/20 06:43:40;;;;;;;8.77;3.80;;;16.40;99.90;;;;;;5053212;28;20043;-71
2023/09/20 06:46:09;;;;;;;8.40;3.13;;;16.40;99.90;;;;;;5053411;28;20037;-71
2023/09/20 06:48:37;;;;;;;10.32;3.55;;;16.40;99.90;;;;;;5052068;28;20049;-71
2023/09/20 06:51:03;;;;;;;8.07;2.50;;;16.40;99.90;;;;;;5052259;28;20037;-70
2023/09/20 06:53:30;;;;;;;8.18;2.63;;;16.40;99.90;;;;;;5053464;28;20045;-71
2023/09/20 06:55:59;;;;;;;5.78;2.72;;;16.50;99.90;;;;;;5053265;28;20033;-70
2023/09/20 06:58:25;;;;;;;6.82;3.58;;;16.50;99.90;;;;;;5053387;28;20041;-70
2023/09/20 07:00:51;;;;;;;6.38;3.08;;;16.50;99.90;;;;;;5051170;28;20116;-71
2023/09/20 07:03:18;;;;;;;5.68;3.25;;;16.50;99.90;;;;;;5052915;28;20033;-70
2023/09/20 07:05:44;;;;;;;10.32;3.00;;;16.70;99.90;;;;;;5051825;28;20041;-71
2023/09/20 07:08:10;;;;;;;7.35;2.72;;;16.80;99.90;;;;;;5053097;28;20120;-71
2023/09/20 07:10:36;;;;;;;5.03;2.33;;;16.90;99.90;;;;;;5052457;28;20040;-70
2023/09/20 07:13:05;;;;;;;8.35;2.70;;;16.90;99.90;;;;;;5053248;28;20090;-71
2023/09/20 07:15:34;;;;;;;8.40;2.80;;;16.90;99.90;;;;;;5053067;28;20095;-71
2023/09/20 07:18:00;;;;;;;6.75;2.38;;;17.00;99.90;;;;;;5052810;28;20436;-71
2023/09/20 07:20:29;;;;;;;8.23;2.80;;;17.00;99.90;;;;;;5051355;28;20162;-71
2023/09/20 07:22:55;;;;;;;4.75;2.63;;;17.00;99.90;;;;;;5052926;28;20037;-71
2023/09/20 07:25:22;;;;;;;5.63;2.22;;;17.00;99.90;;;;;;5052666;28;20056;-71
2023/09/20 07:27:55;;;;;;;6.80;2.40;;;17.00;99.90;;;;;;5052987;28;20037;-70
2023/09/20 07:30:22;;;;;;;8.05;3.03;;;17.00;99.90;;;;;;5051095;28;20045;-70
2023/09/20 07:32:50;;;;;;;4.50;2.83;;;17.30;99.90;;;;;;5052734;28;20072;-70
2023/09/20 07:38:03;;;;;;;5.82;2.65;;;17.70;99.90;;;;;;5103275;22;20431;-73
2023/09/20 07:40:30;;;;;;;8.32;2.95;;;18.00;99.90;;;;;;5073307;28;20028;-73
2023/09/20 07:43:07;;;;;;;8.45;3.05;;;18.30;99.90;;;;;;5092349;28;20181;-73
2023/09/20 07:45:38;;;;;;;5.88;2.55;;;18.50;99.90;;;;;;5074454;28;20036;-73
2023/09/20 07:48:11;;;;;;;7.78;3.40;;;18.50;99.90;;;;;;5085211;28;20051;-71
2023/09/20 07:50:41;;;;;;;7.68;3.92;;;18.70;99.90;;;;;;5092412;28;20512;-72
2023/09/20 07:53:10;;;;;;;10.68;2.97;;;18.70;99.90;;;;;;5092470;28;20431;-71
2023/09/20 07:55:45;;;;;;;7.43;3.20;;;18.80;99.90;;;;;;5091349;28;20036;-72
2023/09/20 07:58:15;;;;;;;7.00;2.92;;;18.80;99.90;;;;;;5091110;28;20048;-72
2023/09/20 08:00:45;;;;;;;7.93;2.60;;;18.70;99.90;;;;;;5090971;28;20040;-72
2023/09/20 08:03:13;;;;;;;9.77;3.05;;;18.60;99.90;;;;;;5092412;28;20028;-72
2023/09/20 08:05:41;;;;;;;6.95;3.28;;;18.40;99.90;;;;;;5090901;28;20093;-72
2023/09/20 08:08:10;;;;;;;8.45;3.25;;;18.20;99.90;;;;;;5090867;28;20079;-72
2023/09/20 08:10:37;;;;;;;7.38;3.35;;;18.10;99.90;;;;;;5090877;28;20042;-72
2023/09/20 08:13:04;;;;;;;6.07;2.97;;;18.00;99.90;;;;;;5091000;28;20036;-72
2023/09/20 08:15:38;;;;;;;8.63;3.00;;;18.10;99.90;;;;;;5091891;28;20380;-71
2023/09/20 08:20:48;;;;;;;7.05;3.15;;;18.20;99.90;;;;;;5092071;28;20040;-71
2023/09/20 09:01:44;;;;;;;6.82;2.70;;;18.40;99.90;;;;;;5094376;28;20075;-70
2023/09/20 09:04:12;;;;;;;9.68;2.90;;;18.30;99.90;;;;;;5094513;28;20095;-70
2023/09/20 09:06:39;;;;;;;7.15;2.70;;;18.20;99.90;;;;;;5089446;28;20051;-70
2023/09/20 09:09:05;;;;;;;6.28;3.05;;;18.30;99.90;;;;;;5089578;28;20046;-69
2023/09/20 09:11:31;;;;;;;11.50;3.05;;;18.30;99.90;;;;;;5094310;28;20036;-70
2023/09/20 09:13:59;;;;;;;7.00;3.28;;;18.20;99.90;;;;;;5095470;28;20376;-70
2023/09/20 09:16:28;;;;;;;5.57;3.35;;;18.20;99.90;;;;;;5085676;28;20044;-69
2023/09/20 09:18:55;;;;;;;9.35;3.30;;;18.20;99.90;;;;;;5088621;28;20036;-70
2023/09/20 09:21:20;;;;;;;5.88;2.80;;;18.30;99.90;;;;;;5080980;28;20040;-70
2023/09/20 09:23:47;;;;;;;7.00;3.55;;;18.20;99.90;;;;;;5073888;28;20028;-70
2023/09/20 09:26:16;;;;;;;5.85;3.03;;;18.30;99.90;;;;;;5074988;28;20396;-70
2023/09/20 09:28:45;;;;;;;6.40;3.28;;;18.40;99.90;;;;;;5074564;28;20040;-70
2023/09/20 09:31:12;;;;;;;5.55;2.83;;;18.30;99.90;;;;;;5073713;28;20120;-70
2023/09/20 09:33:38;;;;;;;8.38;3.10;;;18.40;99.90;;;;;;5073868;28;20502;-70
2023/09/20 09:36:04;;;;;;;5.93;3.20;;;18.30;99.90;;;;;;5074966;28;20074;-70
2023/09/20 09:38:33;;;;;;;10.80;4.07;;;18.40;99.90;;;;;;5074492;28;20033;-70
2023/09/20 09:40:59;;;;;;;6.13;3.30;;;18.40;99.90;;;;;;5073254;28;20130;-70
2023/09/20 09:43:32;;;;;;;8.70;3.60;;;18.50;99.90;;;;;;5080000;28;20494;-70
2023/09/20 09:46:08;;;;;;;;;;;18.50;99.90;;;;;;5086047;28;20422;-69
2023/09/20 09:48:37;;;;;;;8.02;2.97;;;18.50;99.90;;;;;;5085276;28;20002;-70
2023/09/20 09:51:08;;;;;;;7.65;3.13;;;18.60;99.90;;;;;;5089767;28;20518;-70
2023/09/20 09:53:36;;;;;;;6.55;2.70;;;18.60;99.90;;;;;;5076864;28;20045;-71
2023/09/20 09:56:06;;;;;;;8.02;2.70;;;18.70;99.90;;;;;;5073189;28;20440;-71
2023/09/20 09:58:33;;;;;;;6.75;2.70;;;18.70;99.90;;;;;;5088178;28;20028;-70
2023/09/20 10:01:03;;;;;;;6.05;2.83;;;18.80;99.90;;;;;;5072805;28;20079;-71
2023/09/20 10:03:34;;;;;;;5.65;3.15;;;18.80;99.90;;;;;;5072512;28;20036;-71
2023/09/20 10:06:05;;;;;;;6.78;2.95;;;18.80;99.90;;;;;;5073129;28;20048;-71
2023/09/20 10:08:36;;;;;;;8.35;3.28;;;18.80;99.90;;;;;;5073980;28;20063;-71
2023/09/20 10:11:02;;;;;;;9.00;4.00;;;18.90;99.90;;;;;;5073137;28;20044;-71
2023/09/20 10:13:29;;;;;;;7.85;2.65;;;18.90;99.90;;;;;;5074283;28;20040;-71
2023/09/20 10:15:57;;;;;;;4.85;2.65;;;18.90;99.90;;;;;;5072579;28;20044;-72
2023/09/20 10:18:28;;;;;;;6.85;2.85;;;19.00;99.90;;;;;;5058950;28;20526;-71
2023/09/20 10:21:00;;;;;;;4.18;2.50;;;19.10;99.90;;;;;;5091708;28;20497;-71
2023/09/20 10:23:26;;;;;;;4.28;2.92;;;19.20;99.90;;;;;;5091906;28;20097;-70
2023/09/20 10:25:56;;;;;;;7.05;2.50;;;19.10;99.90;;;;;;5092356;28;20047;-70
2023/09/20 10:28:24;;;;;;;5.93;2.25;;;19.20;99.90;;;;;;5092670;28;20040;-71
2023/09/20 10:31:03;;;;;;;9.20;2.95;;;19.10;99.90;;;;;;5093959;28;20048;-71
2023/09/20 10:33:48;;;;;;;4.63;2.33;;;19.10;99.90;;;;;;5092780;28;20036;-72
2023/09/20 10:36:39;;;;;;;4.13;2.30;;;19.20;99.90;;;;;;5092643;28;20085;-72
2023/09/20 10:39:17;;;;;;;10.35;3.00;;;19.10;99.90;;;;;;5092179;28;20134;-72
2023/09/20 10:41:50;;;;;;;5.78;2.53;;;19.20;99.90;;;;;;5093793;28;20112;-71
2023/09/20 10:44:29;;;;;;;6.03;2.00;;;19.30;99.90;;;;;;5092798;28;20048;-71
2023/09/20 10:46:58;;;;;;;3.80;2.08;;;19.30;99.90;;;;;;5093653;28;20400;-71
2023/09/20 10:49:40;;;;;;;4.93;1.95;;;19.40;99.90;;;;;;5092238;28;20044;-71
2023/09/20 10:52:07;;;;;;;4.23;1.90;;;19.30;99.90;;;;;;5092368;28;20075;-71
2023/09/20 10:54:36;;;;;;;6.03;2.25;;;19.40;99.90;;;;;;5091631;28;20062;-72
2023/09/20 10:57:06;;;;;;;6.60;2.05;;;19.30;99.90;;;;;;5091275;28;20051;-72
2023/09/20 10:59:32;;;;;;;6.05;2.28;;;19.40;99.90;;;;;;5091356;28;20089;-72
2023/09/20 11:02:05;;;;;;;4.35;2.63;;;19.40;99.90;;;;;;5092069;28;20085;-72
2023/09/20 11:04:31;;;;;;;;;;;19.50;99.90;;;;;;5091061;28;20045;-72
2023/09/20 11:06:59;;;;;;;5.85;1.75;;;19.30;99.90;;;;;;5092629;28;20304;-72
2023/09/20 11:09:30;;;;;;;4.15;2.47;;;19.40;99.90;;;;;;5092245;28;20040;-71
2023/09/20 11:12:11;;;;;;;5.88;1.90;;;19.40;99.90;;;;;;5091288;28;20048;-72
2023/09/20 11:14:41;;;;;;;3.40;1.80;;;19.40;99.90;;;;;;5092633;28;20037;-73
2023/09/20 11:17:08;;;;;;;2.67;1.58;;;19.20;99.90;;;;;;5090012;28;20044;-72
2023/09/20 11:19:35;;;;;;;6.68;2.22;;;19.30;99.90;;;;;;5092152;28;20040;-72
2023/09/20 11:22:01;;;;;;;6.03;1.77;;;19.30;99.90;;;;;;5092629;28;20052;-72
2023/09/20 11:24:27;;;;;;;5.85;1.85;;;19.30;99.90;;;;;;5092963;28;20076;-72
2023/09/20 11:26:54;;;;;;;5.20;2.00;;;19.20;99.90;;;;;;5092958;28;20079;-71
2023/09/20 11:29:20;;;;;;;5.57;2.17;;;19.30;99.90;;;;;;5091809;28;20392;-71
2023/09/20 11:31:46;;;;;;;3.55;2.00;;;19.20;99.90;;;;;;5082338;28;20039;-72
2023/09/20 11:34:17;;;;;;;5.57;2.30;;;19.20;99.90;;;;;;5092188;28;20499;-71
2023/09/20 11:36:44;;;;;;;5.47;1.60;;;19.20;99.90;;;;;;5088609;28;20055;-73
2023/09/20 11:39:14;;;;;;;6.03;2.42;;;19.20;99.90;;;;;;5092266;28;20495;-74
2023/09/20 11:41:43;;;;;;;6.05;2.30;;;19.30;99.90;;;;;;5087250;28;20036;-72
2023/09/20 11:44:08;;;;;;;3.72;1.65;;;19.30;99.90;;;;;;5082626;28;20036;-71
2023/09/20 11:46:34;;;;;;;4.72;2.25;;;19.40;99.90;;;;;;5090704;28;20042;-71
2023/09/20 11:49:02;;;;;;;2.67;1.80;;;19.40;99.90;;;;;;5091878;28;20449;-71
2023/09/20 11:51:34;;;;;;;5.15;1.70;;;19.40;99.90;;;;;;5078101;28;20085;-72
2023/09/20 11:54:03;;;;;;;3.75;1.60;;;19.50;99.90;;;;;;5092113;28;20047;-71
2023/09/20 11:56:32;;;;;;;4.72;1.98;;;19.40;99.90;;;;;;5091775;28;20036;-72
2023/09/20 11:59:06;;;;;;;3.05;1.85;;;19.40;99.90;;;;;;5079749;28;20115;-71
2023/09/20 12:01:33;;;;;;;4.93;2.08;;;19.40;99.90;;;;;;5086283;28;20036;-72
2023/09/20 12:04:03;;;;;;;4.78;2.28;;;19.50;99.90;;;;;;5088057;28;20040;-71
2023/09/20 12:06:29;;;;;;;4.63;2.00;;;19.50;99.90;;;;;;5091895;28;20075;-73
2023/09/20 12:08:55;;;;;;;3.55;2.25;;;19.50;99.90;;;;;;5084070;28;20089;-72
2023/09/20 12:11:22;;;;;;;5.35;1.80;;;19.60;99.90;;;;;;5079987;28;20116;-71
2023/09/20 12:13:48;;;;;;;2.75;2.00;;;19.60;99.90;;;;;;5082553;28;20047;-71
2023/09/20 12:16:14;;;;;;;5.90;2.58;;;19.60;99.90;;;;;;5088695;28;20055;-71
2023/09/20 12:18:42;;;;;;;4.40;2.70;;;19.70;99.90;;;;;;5087744;28;20036;-71
2023/09/20 12:21:08;;;;;;;6.63;2.30;;;19.70;99.90;;;;;;5084814;28;20044;-71
2023/09/20 12:23:39;;;;;;;3.80;2.45;;;19.70;99.90;;;;;;5090303;28;20028;-71
2023/09/20 12:26:05;;;;;;;6.90;2.72;;;19.90;99.90;;;;;;5085722;28;20068;-71
2023/09/20 12:28:31;;;;;;;5.05;2.10;;;20.10;99.90;;;;;;5088692;28;20039;-73
2023/09/20 12:30:58;;;;;;;6.97;2.25;;;20.20;99.90;;;;;;5091955;28;20039;-71
2023/09/20 12:33:27;;;;;;;4.00;2.40;;;20.30;99.90;;;;;;5086161;28;20103;-71
2023/09/20 12:35:56;;;;;;;3.70;2.30;;;20.50;99.90;;;;;;5084941;28;20115;-72
2023/09/20 12:38:23;;;;;;;5.47;2.30;;;20.50;99.90;;;;;;5088466;28;20048;-71
2023/09/20 12:40:49;;;;;;;5.55;2.63;;;20.50;99.90;;;;;;5090332;28;20123;-72
2023/09/20 12:43:18;;;;;;;6.07;2.42;;;20.40;99.90;;;;;;5090445;28;20114;-72
2023/09/20 12:45:44;;;;;;;4.40;2.38;;;20.40;99.90;;;;;;5087458;28;20043;-71
2023/09/20 12:48:12;;;;;;;4.95;2.60;;;20.40;99.90;;;;;;5084482;28;20143;-71
2023/09/20 12:50:38;;;;;;;5.90;2.72;;;20.40;99.90;;;;;;5091529;28;20040;-71
2023/09/20 12:53:08;;;;;;;5.22;2.45;;;20.60;99.90;;;;;;5091665;28;20503;-72
2023/09/20 12:55:35;;;;;;;5.18;2.40;;;20.70;99.90;;;;;;5085390;28;20044;-71
2023/09/20 12:58:01;;;;;;;6.78;2.53;;;20.80;99.90;;;;;;5089674;28;20540;-71
2023/09/20 13:00:27;;;;;;;6.30;2.67;;;20.70;99.90;;;;;;5089714;28;20044;-71
2023/09/20 13:02:55;;;;;;;5.47;2.60;;;20.70;99.90;;;;;;5089871;28;20040;-70
2023/09/20 13:05:22;;;;;;;5.43;2.53;;;20.80;99.90;;;;;;5088471;28;20044;-71
2023/09/20 13:07:48;;;;;;;6.47;2.40;;;20.70;99.90;;;;;;5091057;28;20041;-71
2023/09/20 13:10:14;;;;;;;6.55;2.95;;;20.90;99.90;;;;;;5090275;28;20036;-71
2023/09/20 13:12:41;;;;;;;6.10;2.63;;;20.90;99.90;;;;;;5091672;28;20054;-71
2023/09/20 13:15:12;;;;;;;5.35;3.13;;;20.90;99.90;;;;;;5090425;28;20051;-71
2023/09/20 13:17:39;;;;;;;5.05;2.70;;;20.90;99.90;;;;;;5091422;28;20039;-71
2023/09/20 13:20:06;;;;;;;3.90;2.50;;;20.80;99.90;;;;;;5091098;28;20407;-72
2023/09/20 13:22:31;;;;;;;11.65;3.05;;;20.70;99.90;;;;;;5091327;28;20115;-72
2023/09/20 13:24:57;;;;;;;8.27;3.08;;;20.60;99.90;;;;;;5091344;28;20473;-71
2023/09/20 13:27:23;;;;;;;4.50;2.58;;;20.60;99.90;;;;;;5091018;28;20044;-71
2023/09/20 13:29:49;;;;;;;7.70;2.65;;;20.50;99.90;;;;;;5090990;28;20510;-72
2023/09/20 13:32:15;;;;;;;6.13;2.72;;;20.50;99.90;;;;;;5089918;28;20036;-71